North Chester, Massachusetts
Current Conditions -  °F | °C
As of 7:53 AM on Friday 24 Oct 2014 (Local Time) from KBAF Reporting Station
Light Rain Light Rain  
Wind Chill: 44°   Ceiling: 8000
Heat Index: 47°   Visibility: 10mi
Dew Point: 43°   Wind: 7mph
Humidity: 86%   Direction: 350°N
Pressure: 29.75"   Gusts: NA
Location:  42.3047°N, 72.879°W
Report Text: KBAF 241153Z 35006KT 10SM -RA SCT060 OVC080 08/06 A2975 RMK AO2 SLP079 P0004 60009 70033 T00830061 10100 20083 51008
Loading
Personal Weather Stations






























Interactive Weather Map New forecast layout! Learn more

10-Day Weather Forecast

Advertisements
Track Severe Weather on mobile